createdAt,value
2017-05-25T00:00:45.385Z,15.80
2017-05-25T00:03:12.836Z,15.70
2017-05-25T00:05:40.300Z,15.60
2017-05-25T00:08:07.796Z,15.60
2017-05-25T00:10:35.350Z,15.60
2017-05-25T00:13:02.898Z,15.50
2017-05-25T00:15:30.346Z,15.60
2017-05-25T00:17:57.793Z,15.60
2017-05-25T00:20:25.232Z,15.60
2017-05-25T00:22:52.764Z,15.60
2017-05-25T00:25:20.216Z,15.50
2017-05-25T00:27:47.753Z,15.50
2017-05-25T00:30:15.289Z,15.50
2017-05-25T00:32:42.735Z,15.50
2017-05-25T00:35:10.177Z,15.50
2017-05-25T00:37:37.620Z,15.50
2017-05-25T00:40:05.141Z,15.50
2017-05-25T00:42:32.593Z,15.50
2017-05-25T00:45:00.037Z,15.50
2017-05-25T00:47:27.493Z,15.50
2017-05-25T00:49:55.036Z,15.50
2017-05-25T00:52:22.586Z,15.50
2017-05-25T00:54:50.128Z,15.40
2017-05-25T00:57:17.569Z,15.40
2017-05-25T00:59:45.018Z,15.50
2017-05-25T01:02:12.457Z,15.50
2017-05-25T01:04:39.909Z,15.60
2017-05-25T01:07:07.359Z,15.70
2017-05-25T01:09:34.888Z,15.70
2017-05-25T01:12:02.333Z,15.80
2017-05-25T01:14:29.784Z,15.90
2017-05-25T01:16:57.313Z,15.90
2017-05-25T01:19:24.808Z,15.90
2017-05-25T01:21:52.248Z,15.80
2017-05-25T01:24:19.689Z,15.80
2017-05-25T01:26:47.137Z,15.70
2017-05-25T01:29:14.577Z,15.70
2017-05-25T01:31:42.033Z,15.60
2017-05-25T01:34:09.534Z,15.50
2017-05-25T01:36:37.177Z,15.40
2017-05-25T01:39:04.620Z,15.30
2017-05-25T01:41:32.145Z,15.30
2017-05-25T01:43:59.692Z,15.20
2017-05-25T01:46:27.129Z,15.10
2017-05-25T01:48:54.568Z,15.10
2017-05-25T01:51:22.020Z,15.00
2017-05-25T01:53:49.465Z,14.90
2017-05-25T01:56:17.005Z,14.90
2017-05-25T01:58:44.446Z,14.90
2017-05-25T02:01:11.958Z,15.00
2017-05-25T02:03:39.417Z,15.00
2017-05-25T02:06:06.873Z,14.90
2017-05-25T02:08:34.325Z,14.90
2017-05-25T02:11:01.765Z,15.00
2017-05-25T02:13:29.210Z,15.10
2017-05-25T02:15:56.657Z,15.10
2017-05-25T02:18:24.206Z,15.10
2017-05-25T02:20:51.744Z,15.20
2017-05-25T02:23:19.225Z,15.20
2017-05-25T02:25:46.741Z,15.20
2017-05-25T02:28:14.381Z,15.20
2017-05-25T02:30:41.825Z,15.20
2017-05-25T02:33:09.289Z,15.20
2017-05-25T02:35:36.723Z,15.20
2017-05-25T02:38:04.249Z,15.10
2017-05-25T02:40:31.709Z,15.00
2017-05-25T02:42:59.150Z,14.90
2017-05-25T02:45:26.613Z,15.00
2017-05-25T02:47:54.069Z,15.00
2017-05-25T02:50:21.508Z,15.00
2017-05-25T02:52:48.956Z,15.10
2017-05-25T02:55:16.461Z,15.00
2017-05-25T02:57:43.905Z,15.00
2017-05-25T03:00:11.345Z,14.90
2017-05-25T03:02:38.789Z,14.80
2017-05-25T03:05:06.317Z,14.70
2017-05-25T03:07:33.758Z,14.70
2017-05-25T03:10:01.310Z,14.70
2017-05-25T03:12:28.852Z,14.60
2017-05-25T03:14:56.297Z,14.60
2017-05-25T03:17:23.745Z,14.60
2017-05-25T03:19:51.189Z,14.60
2017-05-25T03:22:18.646Z,14.60
2017-05-25T03:24:46.095Z,14.60
2017-05-25T03:27:13.569Z,14.60
2017-05-25T03:29:41.021Z,14.60
2017-05-25T03:32:08.461Z,14.70
2017-05-25T03:34:35.912Z,14.70
2017-05-25T03:37:04.305Z,14.70
2017-05-25T03:39:31.764Z,14.70
2017-05-25T03:41:59.236Z,14.70
2017-05-25T03:44:26.685Z,14.70
2017-05-25T03:46:54.152Z,14.60
2017-05-25T03:49:21.589Z,14.60
2017-05-25T03:51:49.033Z,14.60
2017-05-25T03:54:16.500Z,14.60
2017-05-25T03:56:43.944Z,14.60
2017-05-25T03:59:11.565Z,14.60
2017-05-25T04:01:39.002Z,14.60
2017-05-25T04:04:06.991Z,14.60
2017-05-25T04:06:34.461Z,14.60
2017-05-25T04:09:02.889Z,14.70
2017-05-25T04:11:30.467Z,14.70
2017-05-25T04:13:57.893Z,14.70
2017-05-25T04:16:25.353Z,14.70
2017-05-25T04:18:52.806Z,14.70
2017-05-25T04:21:20.313Z,14.70
2017-05-25T04:23:47.770Z,14.70
2017-05-25T04:26:15.321Z,14.80
2017-05-25T04:28:42.849Z,14.80
2017-05-25T04:31:10.391Z,14.90
2017-05-25T04:33:37.932Z,15.00
2017-05-25T04:36:05.395Z,15.10
2017-05-25T04:38:32.837Z,15.20
2017-05-25T04:41:00.337Z,15.30
2017-05-25T04:43:27.786Z,15.50
2017-05-25T04:46:00.025Z,15.50
2017-05-25T04:48:27.477Z,15.60
2017-05-25T04:50:54.946Z,15.70
2017-05-25T04:53:22.390Z,15.90
2017-05-25T04:55:49.931Z,16.00
2017-05-25T04:58:17.364Z,16.20
2017-05-25T05:00:44.912Z,16.30
2017-05-25T05:03:12.360Z,16.40
2017-05-25T05:05:39.909Z,16.40
2017-05-25T05:08:07.360Z,16.60
2017-05-25T05:10:34.897Z,16.80
2017-05-25T05:13:02.513Z,16.70
2017-05-25T05:15:29.937Z,16.80
2017-05-25T05:17:57.412Z,16.90
2017-05-25T05:20:24.887Z,16.70
2017-05-25T05:22:52.325Z,16.80
2017-05-25T05:25:19.876Z,16.90
2017-05-25T05:27:47.402Z,17.20
2017-05-25T05:30:14.857Z,17.50
2017-05-25T05:32:42.295Z,17.60
2017-05-25T05:35:09.802Z,17.70
2017-05-25T05:37:37.267Z,17.90
2017-05-25T05:40:04.717Z,18.20
2017-05-25T05:42:32.169Z,18.30
2017-05-25T05:44:59.708Z,18.60
2017-05-25T05:47:27.160Z,18.90
2017-05-25T05:49:54.622Z,18.80
2017-05-25T05:52:22.099Z,18.80
2017-05-25T05:54:49.552Z,18.70
2017-05-25T05:57:16.996Z,18.50
2017-05-25T05:59:44.448Z,18.30
2017-05-25T06:02:11.898Z,18.10
2017-05-25T06:04:39.331Z,18.10
2017-05-25T06:07:06.793Z,18.00
2017-05-25T06:09:34.305Z,18.20
2017-05-25T06:12:01.741Z,18.00
2017-05-25T06:14:29.232Z,17.90
2017-05-25T06:16:56.681Z,18.10
2017-05-25T06:19:24.131Z,18.70
2017-05-25T06:21:51.577Z,19.30
2017-05-25T06:24:19.033Z,19.50
2017-05-25T06:26:46.471Z,19.70
2017-05-25T06:29:13.968Z,19.80
2017-05-25T06:31:41.418Z,19.60
2017-05-25T06:34:08.961Z,19.70
2017-05-25T06:36:36.404Z,19.70
2017-05-25T06:39:03.843Z,19.70
2017-05-25T06:41:31.289Z,19.90
2017-05-25T06:43:58.740Z,20.20
2017-05-25T06:46:26.172Z,20.30
2017-05-25T06:48:53.621Z,20.50
2017-05-25T06:51:21.068Z,20.50
2017-05-25T06:53:48.522Z,20.60
2017-05-25T06:56:16.058Z,20.60
2017-05-25T06:58:43.496Z,20.60
2017-05-25T07:01:10.949Z,20.90
2017-05-25T07:03:38.486Z,21.00
2017-05-25T07:06:06.013Z,21.00
2017-05-25T07:08:33.456Z,20.90
2017-05-25T07:11:00.904Z,21.10
2017-05-25T07:13:28.357Z,21.60
2017-05-25T07:15:55.812Z,21.90
2017-05-25T07:18:23.340Z,22.00
2017-05-25T07:20:50.799Z,22.20
2017-05-25T07:23:18.233Z,22.20
2017-05-25T07:25:45.681Z,21.70
2017-05-25T07:28:13.125Z,21.80
2017-05-25T07:30:40.569Z,21.90
2017-05-25T07:33:08.098Z,22.10
2017-05-25T07:35:35.537Z,22.50
2017-05-25T07:38:03.083Z,22.90
2017-05-25T07:40:30.528Z,23.20
2017-05-25T07:42:58.193Z,23.10
2017-05-25T07:45:25.628Z,23.10
2017-05-25T07:47:53.061Z,22.70
2017-05-25T07:50:20.513Z,22.50
2017-05-25T07:52:47.972Z,22.40
2017-05-25T07:55:15.593Z,22.00
2017-05-25T07:57:43.031Z,21.70
2017-05-25T08:00:10.480Z,21.60
2017-05-25T08:02:37.933Z,21.20
2017-05-25T08:05:05.385Z,21.10
2017-05-25T08:07:32.841Z,21.00
2017-05-25T08:10:00.345Z,20.80
2017-05-25T08:12:27.891Z,20.60
2017-05-25T08:14:55.340Z,20.40
2017-05-25T08:17:22.781Z,20.20
2017-05-25T08:19:50.231Z,20.20
2017-05-25T08:22:17.674Z,20.20
2017-05-25T08:24:45.120Z,20.20
2017-05-25T08:27:12.594Z,20.20
2017-05-25T08:29:40.049Z,20.20
2017-05-25T08:32:07.580Z,20.20
2017-05-25T08:34:35.026Z,20.00
2017-05-25T08:37:02.512Z,19.80
2017-05-25T08:39:30.061Z,19.90
2017-05-25T08:41:57.507Z,19.90
2017-05-25T08:44:25.054Z,20.00
2017-05-25T08:46:52.504Z,20.20
2017-05-25T08:49:19.955Z,20.30
2017-05-25T08:51:47.401Z,20.50
2017-05-25T08:54:14.842Z,20.70
2017-05-25T08:56:42.356Z,20.70
2017-05-25T08:59:09.803Z,20.90
2017-05-25T09:01:37.346Z,21.10
2017-05-25T09:04:04.897Z,21.40
2017-05-25T09:06:32.341Z,21.90
2017-05-25T09:08:59.877Z,22.00
2017-05-25T09:11:27.321Z,22.30
2017-05-25T09:13:54.866Z,23.20
2017-05-25T09:16:22.317Z,23.80
2017-05-25T09:18:49.762Z,24.00
2017-05-25T09:21:17.202Z,23.80
2017-05-25T09:23:44.845Z,23.90
2017-05-25T09:26:12.390Z,23.40
2017-05-25T09:28:39.838Z,23.10
2017-05-25T09:31:07.893Z,23.00
2017-05-25T09:33:35.432Z,22.60
2017-05-25T09:36:02.877Z,22.90
2017-05-25T09:38:30.312Z,23.70
2017-05-25T09:40:57.753Z,24.20
2017-05-25T09:43:25.192Z,24.40
2017-05-25T09:45:52.636Z,24.70
2017-05-25T09:48:20.085Z,24.60
2017-05-25T09:50:47.521Z,24.80
2017-05-25T09:53:15.077Z,24.90
2017-05-25T09:55:42.548Z,25.00
2017-05-25T09:58:10.065Z,24.90
2017-05-25T10:00:37.605Z,24.00
2017-05-25T10:03:05.149Z,23.70
2017-05-25T10:05:32.598Z,23.70
2017-05-25T10:08:00.035Z,23.80
2017-05-25T10:10:27.572Z,23.40
2017-05-25T10:12:55.120Z,23.10
2017-05-25T10:15:22.640Z,22.70
2017-05-25T10:17:50.080Z,22.20
2017-05-25T10:20:17.513Z,21.70
2017-05-25T10:22:44.961Z,21.30
2017-05-25T10:25:12.448Z,21.30
2017-05-25T10:27:39.937Z,21.30
2017-05-25T10:30:07.388Z,21.30
2017-05-25T10:32:34.837Z,21.90
2017-05-25T10:35:02.275Z,22.80
2017-05-25T10:37:29.718Z,23.40
2017-05-25T10:39:57.193Z,24.10
2017-05-25T10:42:24.647Z,24.60
2017-05-25T10:44:52.085Z,25.00
2017-05-25T10:47:19.535Z,25.30
2017-05-25T10:49:46.974Z,24.80
2017-05-25T10:52:14.405Z,24.40
2017-05-25T10:54:41.853Z,24.10
2017-05-25T10:57:09.291Z,23.90
2017-05-25T10:59:36.721Z,23.30
2017-05-25T11:02:04.181Z,23.10
2017-05-25T11:04:31.613Z,22.70
2017-05-25T11:06:59.067Z,21.80
2017-05-25T11:09:26.511Z,21.80
2017-05-25T11:11:54.048Z,21.90
2017-05-25T11:14:21.493Z,22.10
2017-05-25T11:16:49.015Z,21.80
2017-05-25T11:19:16.608Z,21.50
2017-05-25T11:21:44.013Z,21.20
2017-05-25T11:24:11.456Z,21.10
2017-05-25T11:26:38.925Z,21.30
2017-05-25T11:29:06.377Z,21.60
2017-05-25T11:31:33.826Z,21.70
2017-05-25T11:34:01.266Z,21.20
2017-05-25T11:36:28.692Z,21.30
2017-05-25T11:38:56.158Z,21.50
2017-05-25T11:41:23.609Z,21.50
2017-05-25T11:43:51.141Z,21.50
2017-05-25T11:46:18.576Z,21.10
2017-05-25T11:48:46.012Z,20.90
2017-05-25T11:51:13.449Z,20.80
2017-05-25T11:53:40.893Z,20.70
2017-05-25T11:56:08.397Z,20.90
2017-05-25T11:58:35.939Z,20.90
2017-05-25T12:01:03.477Z,21.10
2017-05-25T12:03:30.940Z,21.20
2017-05-25T12:05:58.578Z,20.80
2017-05-25T12:08:26.013Z,20.60
2017-05-25T12:10:53.444Z,20.60
2017-05-25T12:13:20.889Z,20.60
2017-05-25T12:15:48.352Z,20.60
2017-05-25T12:18:15.878Z,20.60
2017-05-25T12:20:43.401Z,20.30
2017-05-25T12:23:10.854Z,20.30
2017-05-25T12:25:38.293Z,20.30
2017-05-25T12:28:06.040Z,20.40
2017-05-25T12:30:33.480Z,20.50
2017-05-25T12:33:00.927Z,20.60
2017-05-25T12:35:28.382Z,20.80
2017-05-25T12:37:55.813Z,20.70
2017-05-25T12:40:23.371Z,20.70
2017-05-25T12:42:50.973Z,20.70
2017-05-25T12:45:18.450Z,20.60
2017-05-25T12:47:45.889Z,20.50
2017-05-25T12:50:13.328Z,20.20
2017-05-25T12:52:40.758Z,20.30
2017-05-25T12:55:08.236Z,20.50
2017-05-25T12:57:35.673Z,20.50
2017-05-25T13:00:03.108Z,20.60
2017-05-25T13:02:30.562Z,20.40
2017-05-25T13:04:58.021Z,20.60
2017-05-25T13:07:25.468Z,20.60
2017-05-25T13:09:53.007Z,20.60
2017-05-25T13:12:20.441Z,20.60
2017-05-25T13:14:47.909Z,20.70
2017-05-25T13:17:15.345Z,20.80
2017-05-25T13:19:42.786Z,20.80
2017-05-25T13:22:10.228Z,20.80
2017-05-25T13:24:37.686Z,20.80
2017-05-25T13:27:05.165Z,20.80
2017-05-25T13:29:32.604Z,20.80
2017-05-25T13:32:00.154Z,20.70
2017-05-25T13:34:27.613Z,20.70
2017-05-25T13:36:55.064Z,20.70
2017-05-25T13:39:22.862Z,20.90
2017-05-25T13:41:50.304Z,21.00
2017-05-25T13:44:17.786Z,21.10
2017-05-25T13:46:45.229Z,21.20
2017-05-25T13:49:12.770Z,21.50
2017-05-25T13:51:40.220Z,21.70
2017-05-25T13:54:07.662Z,21.90
2017-05-25T13:56:35.113Z,21.90
2017-05-25T13:59:02.548Z,21.90
2017-05-25T14:01:30.085Z,22.00
2017-05-25T14:03:57.541Z,22.00
2017-05-25T14:06:24.991Z,22.10
2017-05-25T14:08:52.528Z,22.00
2017-05-25T14:11:19.963Z,21.80
2017-05-25T14:13:47.400Z,21.70
2017-05-25T14:16:14.912Z,21.70
2017-05-25T14:18:42.362Z,21.60
2017-05-25T14:21:09.801Z,21.40
2017-05-25T14:23:37.247Z,21.40
2017-05-25T14:26:04.688Z,21.10
2017-05-25T14:28:32.207Z,21.10
2017-05-25T14:30:59.648Z,21.00
2017-05-25T14:33:27.093Z,21.10
2017-05-25T14:35:54.564Z,21.10
2017-05-25T14:38:22.044Z,21.10
2017-05-25T14:40:49.507Z,21.20
2017-05-25T14:43:16.946Z,21.30
2017-05-25T14:45:44.401Z,21.20
2017-05-25T14:48:11.837Z,21.20
2017-05-25T14:50:39.277Z,21.10
2017-05-25T14:53:06.720Z,21.10
2017-05-25T14:55:34.188Z,21.20
2017-05-25T14:58:01.644Z,21.30
2017-05-25T15:00:29.133Z,21.40
2017-05-25T15:02:56.567Z,21.50
2017-05-25T15:05:24.009Z,21.10
2017-05-25T15:07:51.455Z,20.80
2017-05-25T15:10:18.897Z,20.70
2017-05-25T15:12:46.338Z,20.80
2017-05-25T15:15:13.956Z,20.50
2017-05-25T15:17:41.385Z,20.50
2017-05-25T15:20:08.833Z,20.40
2017-05-25T15:22:36.317Z,20.40
2017-05-25T15:25:03.858Z,20.50
2017-05-25T15:27:31.287Z,20.80
2017-05-25T15:29:58.732Z,21.10
2017-05-25T15:32:26.164Z,21.30
2017-05-25T15:34:53.716Z,21.50
2017-05-25T15:37:21.263Z,21.60
2017-05-25T15:39:48.689Z,21.60
2017-05-25T15:42:16.141Z,21.70
2017-05-25T15:44:43.625Z,21.70
2017-05-25T15:47:11.074Z,21.80
2017-05-25T15:49:38.602Z,21.50
2017-05-25T15:52:06.118Z,21.30
2017-05-25T15:54:33.541Z,21.20
2017-05-25T15:57:01.027Z,21.10
2017-05-25T15:59:28.468Z,21.10
2017-05-25T16:01:55.901Z,21.20
2017-05-25T16:04:23.349Z,21.30
2017-05-25T16:06:50.790Z,21.10
2017-05-25T16:09:18.223Z,21.20
2017-05-25T16:11:45.680Z,21.40
2017-05-25T16:14:13.105Z,21.40
2017-05-25T16:16:40.549Z,21.20
2017-05-25T16:19:07.993Z,21.40
2017-05-25T16:21:35.503Z,21.50
2017-05-25T16:24:02.933Z,21.60
2017-05-25T16:26:30.381Z,21.40
2017-05-25T16:28:57.826Z,21.40
2017-05-25T16:31:25.273Z,21.30
2017-05-25T16:33:52.745Z,21.20
2017-05-25T16:36:20.192Z,21.10
2017-05-25T16:38:47.699Z,21.20
2017-05-25T16:41:15.258Z,21.40
2017-05-25T16:43:42.767Z,21.10
2017-05-25T16:46:10.208Z,20.90
2017-05-25T16:48:37.666Z,20.80
2017-05-25T16:51:05.199Z,20.70
2017-05-25T16:53:32.922Z,20.80
2017-05-25T16:56:00.404Z,20.80
2017-05-25T16:58:27.850Z,20.80
2017-05-25T17:00:55.281Z,20.50
2017-05-25T17:03:22.795Z,20.60
2017-05-25T17:05:50.184Z,20.60
2017-05-25T17:08:17.637Z,20.40
2017-05-25T17:10:45.118Z,20.30
2017-05-25T17:13:12.574Z,20.20
2017-05-25T17:15:40.012Z,20.20
2017-05-25T17:18:07.670Z,20.20
2017-05-25T17:20:35.104Z,20.20
2017-05-25T17:23:02.536Z,20.10
2017-05-25T17:25:30.032Z,20.10
2017-05-25T17:27:57.452Z,20.20
2017-05-25T17:30:24.946Z,20.10
2017-05-25T17:32:52.390Z,20.10
2017-05-25T17:35:19.818Z,20.20
2017-05-25T17:37:47.245Z,20.20
2017-05-25T17:40:14.704Z,20.00
2017-05-25T17:42:42.132Z,20.10
2017-05-25T17:45:09.573Z,20.10
2017-05-25T17:47:37.040Z,20.10
2017-05-25T17:50:04.476Z,20.20
2017-05-25T17:52:31.906Z,20.10
2017-05-25T17:54:59.361Z,20.00
2017-05-25T17:57:26.796Z,19.90
2017-05-25T17:59:54.254Z,19.80
2017-05-25T18:02:21.703Z,19.70
2017-05-25T18:04:49.242Z,19.70
2017-05-25T18:07:16.889Z,19.70
2017-05-25T18:09:44.321Z,19.70
2017-05-25T18:12:11.810Z,19.70
2017-05-25T18:14:39.369Z,19.70
2017-05-25T18:17:06.812Z,19.70
2017-05-25T18:19:34.242Z,19.70
2017-05-25T18:22:01.702Z,19.70
2017-05-25T18:24:29.137Z,19.70
2017-05-25T18:26:56.589Z,19.60
2017-05-25T18:29:24.069Z,19.60
2017-05-25T18:31:51.500Z,19.60
2017-05-25T18:34:18.943Z,19.50
2017-05-25T18:36:46.402Z,19.40
2017-05-25T18:39:13.834Z,19.40
2017-05-25T18:41:41.292Z,19.50
2017-05-25T18:44:08.772Z,19.40
2017-05-25T18:46:37.076Z,19.50
2017-05-25T18:49:04.523Z,19.40
2017-05-25T18:51:31.969Z,19.40
2017-05-25T18:53:59.400Z,19.40
2017-05-25T18:56:26.837Z,19.40
2017-05-25T18:58:54.296Z,19.30
2017-05-25T19:01:22.712Z,19.20
2017-05-25T19:03:50.159Z,19.20
2017-05-25T19:06:17.635Z,19.20
2017-05-25T19:08:45.080Z,19.20
2017-05-25T19:11:12.618Z,19.20
2017-05-25T19:13:40.086Z,19.20
2017-05-25T19:16:07.518Z,19.20
2017-05-25T19:18:34.949Z,19.10
2017-05-25T19:21:02.393Z,19.10
2017-05-25T19:23:29.829Z,19.10
2017-05-25T19:25:57.329Z,19.10
2017-05-25T19:28:24.766Z,19.10
2017-05-25T19:30:52.209Z,19.00
2017-05-25T19:33:19.669Z,19.00
2017-05-25T19:35:47.102Z,18.90
2017-05-25T19:38:14.570Z,18.90
2017-05-25T19:40:42.002Z,18.90
2017-05-25T19:43:09.454Z,18.90
2017-05-25T19:45:36.903Z,18.80
2017-05-25T19:48:04.339Z,18.80
2017-05-25T19:50:31.795Z,18.70
2017-05-25T19:52:59.256Z,18.70
2017-05-25T19:55:26.702Z,18.60
2017-05-25T19:57:54.150Z,18.50
2017-05-25T20:00:21.660Z,18.40
2017-05-25T20:02:49.255Z,18.40
2017-05-25T20:05:16.758Z,18.30
2017-05-25T20:07:44.201Z,18.30
2017-05-25T20:10:11.769Z,18.20
2017-05-25T20:12:39.289Z,18.20
2017-05-25T20:15:06.745Z,18.10
2017-05-25T20:17:34.280Z,18.00
2017-05-25T20:20:01.713Z,17.90
2017-05-25T20:22:29.255Z,17.80
2017-05-25T20:24:56.809Z,17.70
2017-05-25T20:27:24.337Z,17.60
2017-05-25T20:29:51.794Z,17.50
2017-05-25T20:32:19.232Z,17.40
2017-05-25T20:34:46.704Z,17.40
2017-05-25T20:37:14.146Z,17.20
2017-05-25T20:39:41.599Z,17.10
2017-05-25T20:42:09.024Z,17.10
2017-05-25T20:44:36.473Z,17.10
2017-05-25T20:47:04.055Z,17.00
2017-05-25T20:49:31.512Z,16.90
2017-05-25T20:51:58.950Z,16.90
2017-05-25T20:54:26.386Z,16.80
2017-05-25T20:56:54.369Z,16.80
2017-05-25T20:59:21.811Z,16.80
2017-05-25T21:01:49.258Z,16.70
2017-05-25T21:04:16.701Z,16.70
2017-05-25T21:06:44.149Z,16.60
2017-05-25T21:09:11.983Z,16.60
2017-05-25T21:11:39.420Z,16.50
2017-05-25T21:14:07.281Z,16.50
2017-05-25T21:16:34.741Z,16.40
2017-05-25T21:19:02.578Z,16.40
2017-05-25T21:21:30.013Z,16.40
2017-05-25T21:23:57.466Z,16.30
2017-05-25T21:26:24.904Z,16.30
2017-05-25T21:28:52.346Z,16.20
2017-05-25T21:31:19.797Z,16.10
2017-05-25T21:33:48.178Z,16.10
2017-05-25T21:36:15.632Z,16.10
2017-05-25T21:38:43.084Z,16.00
2017-05-25T21:41:10.523Z,16.00
2017-05-25T21:43:37.949Z,16.00
2017-05-25T21:46:05.393Z,16.00
2017-05-25T21:48:32.845Z,16.00
2017-05-25T21:51:00.328Z,16.00
2017-05-25T21:53:27.765Z,15.90
2017-05-25T21:55:55.241Z,15.80
2017-05-25T21:58:22.678Z,15.80
2017-05-25T22:00:50.120Z,15.90
2017-05-25T22:03:17.577Z,15.80
2017-05-25T22:05:45.008Z,15.70
2017-05-25T22:08:12.448Z,15.60
2017-05-25T22:10:39.893Z,15.50
2017-05-25T22:13:07.341Z,15.30
2017-05-25T22:15:34.785Z,15.30
2017-05-25T22:18:02.241Z,15.40
2017-05-25T22:20:29.737Z,15.40
2017-05-25T22:22:57.189Z,15.40
2017-05-25T22:25:24.661Z,15.40
2017-05-25T22:27:52.101Z,15.40
2017-05-25T22:30:19.553Z,15.30
2017-05-25T22:32:46.981Z,15.30
2017-05-25T22:35:14.452Z,15.20
2017-05-25T22:37:41.896Z,15.00
2017-05-25T22:40:09.336Z,15.00
2017-05-25T22:42:36.781Z,15.00
2017-05-25T22:45:04.439Z,15.00
2017-05-25T22:47:31.879Z,15.00
2017-05-25T22:49:59.417Z,15.00
2017-05-25T22:52:26.869Z,15.00
2017-05-25T22:54:54.309Z,14.90
2017-05-25T22:57:21.747Z,14.90
2017-05-25T22:59:49.190Z,15.00
2017-05-25T23:02:16.625Z,14.90
2017-05-25T23:04:44.069Z,14.80
2017-05-25T23:07:11.513Z,14.80
2017-05-25T23:09:38.956Z,14.70
2017-05-25T23:12:06.396Z,14.70
2017-05-25T23:14:33.870Z,14.60
2017-05-25T23:17:01.429Z,14.60
2017-05-25T23:19:28.864Z,14.70
2017-05-25T23:21:56.310Z,14.60
2017-05-25T23:24:23.753Z,14.60
2017-05-25T23:26:51.200Z,14.50
2017-05-25T23:29:18.646Z,14.50
2017-05-25T23:31:46.150Z,14.40
2017-05-25T23:34:13.566Z,14.40
2017-05-25T23:36:41.024Z,14.40
2017-05-25T23:39:08.479Z,14.30
2017-05-25T23:41:35.936Z,14.40
2017-05-25T23:44:03.373Z,14.40
2017-05-25T23:46:30.829Z,14.30
2017-05-25T23:48:58.278Z,14.10
2017-05-25T23:51:25.758Z,14.00
2017-05-25T23:53:53.202Z,14.00
2017-05-25T23:56:20.641Z,13.80
2017-05-25T23:58:48.089Z,13.70
